Airfield :
LOGIN :

Register | Disclaimer

   EN    FR    IT 

 










Legend :    VFR   Marginal VFR   IFR   Intensive IFR   Very Intensive IFR
Visi :
Ceiling :
>= 8 km
>= 3000ft
5 to 8 km
1000 to 3000 ft
1500m to 5 km
500 to 1000 ft
800 to 1500m
200 to 500 ft
< 800m
< 200 ft
Symbols :   Thunderstorms  Fog  Heavy snow  Heavy precipitations  Wind > 20 kt
SIGMETs :     Misc.  Thunderstorms  Icing  Turbulence  Mountain Waves  Volcanic Ashes







- Airport Elevation : 122 ft
- IATA code : TXL


EDDT - Berlin Tegel Int.

CURRENT METAR :
  • 210120Z 08008KT 9999 FEW021 BKN042 02/M03 Q1019

EXPIRED METARs :
  • 210050Z 08010KT 050V120 9999 SCT020 BKN035 02/M03 Q1019
  • 210020Z 08008KT 050V110 9999 BKN020 02/M03 Q1019
  • 202350Z 08009KT 040V120 9999 BKN021 02/M03 Q1019
  • 202320Z 09009KT 050V120 9999 BKN021 02/M02 Q1019
  • 202250Z 09011KT 050V120 9999 BKN021 02/M03 Q1019

TAF TAF EDDT
Valid from the 21 at 00:00 until the 22 at 00:00 UTC


202300Z 2100/2124 08010KT 9999 BKN020
TEMPO 2106/2118 BKN012
BECMG 2118/2120 BKN012
No reported NOTAMs for that airfield.



MET'MAP, your aeronautical weather chart ! - Copyright ORBIFLY December 2007 - Disclaimer

ORBIFLY MET'MAP TEAM :

Programming & Development : Alexandra Zaïnal
Concept & Development : Baudouin d'Aumeries
Co-Development & Prog : Marc-Olivier Méhu
Technical & hardware support : Manuel Goepfert

Contact : metmap@orbifly.com




SOURCES & CREDITS :

   NOAA